Time;durP1;ratioP1;P1;durP2;ratioP2;P2;SDS_P1;SDS_P2;PMS_P1;PMS_P2;Temp;Humidity;BMP_temperature;BMP_pressure;BME280_temperature;BME280_humidity;BME280_pressure;Samples;Min_cycle;Max_cycle;Signal;HPM_P1;HPM_P2
2022/11/09 00:01:50;;;;;;;196.93;108.82;;;5.20;99.90;;;;;;5104487;28;20059;-81
2022/11/09 00:04:17;;;;;;;202.63;109.53;;;5.20;99.90;;;;;;5097181;28;20043;-82
2022/11/09 00:06:46;;;;;;;196.40;107.32;;;5.20;99.90;;;;;;5107779;28;20036;-82
2022/11/09 00:09:13;;;;;;;182.23;102.45;;;5.20;99.90;;;;;;5103957;28;20482;-82
2022/11/09 00:11:41;;;;;;;194.45;109.35;;;5.20;99.90;;;;;;5096927;28;20089;-81
2022/11/09 00:14:14;;;;;;;172.00;96.35;;;5.20;99.90;;;;;;5119256;28;20490;-82
2022/11/09 00:16:41;;;;;;;177.07;98.35;;;5.20;99.90;;;;;;5117276;28;20037;-83
2022/11/09 00:19:08;;;;;;;164.45;95.40;;;5.20;99.90;;;;;;5118575;28;20055;-82
2022/11/09 00:21:36;;;;;;;146.10;83.55;;;5.20;99.90;;;;;;5116303;28;20109;-81
2022/11/09 00:24:05;;;;;;;158.32;91.78;;;5.20;99.90;;;;;;5110072;28;20044;-80
2022/11/09 00:26:33;;;;;;;167.02;98.18;;;5.20;99.90;;;;;;5105309;28;20079;-80
2022/11/09 00:29:00;;;;;;;145.75;84.25;;;5.10;99.90;;;;;;5084672;28;20044;-82
2022/11/09 00:31:27;;;;;;;142.50;81.65;;;5.10;99.90;;;;;;5091632;28;20048;-82
2022/11/09 00:33:56;;;;;;;153.48;89.32;;;5.10;99.90;;;;;;5104816;28;20124;-80
2022/11/09 00:36:27;;;;;;;118.80;70.90;;;5.00;99.90;;;;;;5084008;28;20040;-81
2022/11/09 00:38:55;;;;;;;123.25;71.35;;;5.00;99.90;;;;;;5100888;28;20407;-80
2022/11/09 00:41:25;;;;;;;127.50;74.45;;;5.10;99.90;;;;;;5101870;28;20039;-81
2022/11/09 00:43:53;;;;;;;121.65;71.75;;;5.10;99.90;;;;;;5102092;28;20044;-81
2022/11/09 00:46:21;;;;;;;120.57;71.13;;;5.10;99.90;;;;;;5100444;28;20048;-80
2022/11/09 00:48:50;;;;;;;133.52;74.78;;;5.10;99.90;;;;;;5083945;28;20138;-81
2022/11/09 00:51:18;;;;;;;121.85;70.50;;;5.00;99.90;;;;;;5098250;28;20038;-82
2022/11/09 00:53:47;;;;;;;118.95;68.63;;;5.00;99.90;;;;;;5083476;28;20048;-81
2022/11/09 00:56:17;;;;;;;118.03;67.18;;;5.00;99.90;;;;;;5085005;28;20044;-81
2022/11/09 00:58:46;;;;;;;123.47;69.32;;;5.00;99.90;;;;;;5082942;28;20044;-81
2022/11/09 01:01:16;;;;;;;119.93;64.45;;;5.00;99.90;;;;;;5110568;28;20055;-81
2022/11/09 01:03:45;;;;;;;104.60;60.33;;;5.00;99.90;;;;;;5112378;28;20960;-80
2022/11/09 01:06:15;;;;;;;95.40;53.42;;;5.00;99.90;;;;;;5102442;28;20043;-81
2022/11/09 01:08:44;;;;;;;104.70;61.35;;;5.10;99.90;;;;;;5083232;28;20474;-82
2022/11/09 01:11:12;;;;;;;110.28;62.00;;;5.00;99.90;;;;;;5082623;28;20050;-81
2022/11/09 01:13:40;;;;;;;120.35;67.03;;;5.00;99.90;;;;;;5100417;28;20123;-81
2022/11/09 01:16:12;;;;;;;123.70;67.72;;;5.00;99.90;;;;;;5101856;28;20048;-82
2022/11/09 01:18:40;;;;;;;128.23;70.68;;;5.00;99.90;;;;;;5099981;28;20040;-82
2022/11/09 01:21:10;;;;;;;128.20;70.07;;;5.00;99.90;;;;;;5100683;28;20039;-83
2022/11/09 01:23:38;;;;;;;114.38;64.32;;;5.00;99.90;;;;;;5083243;28;20576;-80
2022/11/09 01:26:07;;;;;;;129.85;66.13;;;5.00;99.90;;;;;;5100891;28;20048;-79
2022/11/09 01:28:35;;;;;;;118.43;59.45;;;5.00;99.90;;;;;;5082616;28;20044;-81
2022/11/09 01:31:06;;;;;;;101.20;52.97;;;5.00;99.90;;;;;;5098841;28;20052;-82
2022/11/09 01:33:36;;;;;;;173.43;79.05;;;5.10;99.90;;;;;;5100289;28;20503;-82
2022/11/09 01:36:04;;;;;;;184.60;84.45;;;5.00;99.90;;;;;;5101734;28;20065;-81
2022/11/09 01:38:32;;;;;;;125.57;64.88;;;4.90;99.90;;;;;;5099390;28;20499;-82
2022/11/09 01:40:59;;;;;;;110.28;62.20;;;4.90;99.90;;;;;;5100697;28;20039;-83
2022/11/09 01:43:27;;;;;;;114.57;65.72;;;4.90;99.90;;;;;;5101112;28;20043;-80
2022/11/09 01:45:59;;;;;;;156.95;81.13;;;4.80;99.90;;;;;;5101101;28;20039;-84
2022/11/09 01:48:33;;;;;;;152.52;81.22;;;4.80;99.90;;;;;;5082790;28;20138;-79
2022/11/09 01:51:08;;;;;;;133.98;77.45;;;4.80;99.90;;;;;;5100595;28;20035;-80
2022/11/09 01:53:39;;;;;;;119.55;69.75;;;4.80;99.90;;;;;;5099865;28;20044;-81
2022/11/09 01:56:09;;;;;;;116.85;69.50;;;4.80;99.90;;;;;;5082096;28;20040;-81
2022/11/09 01:58:41;;;;;;;114.22;69.35;;;4.90;99.90;;;;;;5071744;28;20059;-81
2022/11/09 02:01:10;;;;;;;111.38;63.53;;;4.90;99.90;;;;;;5100093;28;20036;-81
2022/11/09 02:03:42;;;;;;;115.95;68.40;;;4.80;99.90;;;;;;5082344;28;20513;-83
2022/11/09 02:06:15;;;;;;;107.78;63.60;;;4.80;99.90;;;;;;5082124;28;20052;-83
2022/11/09 02:08:44;;;;;;;104.22;65.40;;;4.80;99.90;;;;;;5082194;28;20040;-81
2022/11/09 02:11:16;;;;;;;97.50;58.67;;;4.70;99.90;;;;;;5081818;28;20047;-82
2022/11/09 02:13:46;;;;;;;99.38;58.47;;;4.70;99.90;;;;;;5082582;28;20047;-83
2022/11/09 02:16:15;;;;;;;104.57;58.58;;;4.80;99.90;;;;;;5080873;28;20130;-82
2022/11/09 02:18:49;;;;;;;121.78;56.72;;;4.80;99.90;;;;;;5081508;28;20047;-82
2022/11/09 02:21:18;;;;;;;109.35;54.85;;;4.80;99.90;;;;;;5098987;28;20495;-82
2022/11/09 02:23:46;;;;;;;106.13;55.75;;;4.90;99.90;;;;;;5081753;28;20044;-82
2022/11/09 02:26:19;;;;;;;105.50;56.50;;;4.90;99.90;;;;;;5084316;28;20139;-82
2022/11/09 02:28:47;;;;;;;98.15;52.35;;;4.90;99.90;;;;;;5088120;28;20474;-83
2022/11/09 02:31:17;;;;;;;91.82;50.83;;;4.90;99.90;;;;;;5087638;28;20040;-82
2022/11/09 02:33:54;;;;;;;98.10;52.50;;;4.90;99.90;;;;;;5088241;28;20091;-79
2022/11/09 02:36:24;;;;;;;97.28;53.92;;;4.90;99.90;;;;;;5088994;28;20040;-83
2022/11/09 02:38:54;;;;;;;93.22;52.70;;;4.90;99.90;;;;;;5088143;28;20066;-81
2022/11/09 02:41:22;;;;;;;101.75;54.60;;;4.90;99.90;;;;;;5087401;28;20046;-81
2022/11/09 02:43:51;;;;;;;103.43;53.35;;;4.90;99.90;;;;;;5090086;28;20038;-80
2022/11/09 02:46:30;;;;;;;95.65;48.28;;;4.90;99.90;;;;;;5088291;28;20090;-81
2022/11/09 02:48:58;;;;;;;110.45;49.50;;;5.00;99.90;;;;;;5087586;28;20091;-81
2022/11/09 02:51:27;;;;;;;86.18;49.03;;;5.00;99.90;;;;;;5088472;28;20499;-81
2022/11/09 02:53:54;;;;;;;92.95;49.45;;;5.10;99.90;;;;;;5088352;28;20055;-82
2022/11/09 02:56:23;;;;;;;89.70;50.20;;;5.10;99.90;;;;;;5088571;28;20074;-82
2022/11/09 02:58:50;;;;;;;90.72;50.40;;;5.10;99.90;;;;;;5089366;28;20036;-81
2022/11/09 03:01:18;;;;;;;92.53;51.17;;;5.00;99.90;;;;;;5087525;28;20048;-82
2022/11/09 03:03:46;;;;;;;89.13;49.17;;;5.10;99.90;;;;;;5088114;28;20050;-80
2022/11/09 03:06:13;;;;;;;91.45;49.90;;;5.00;99.90;;;;;;5089552;28;20047;-82
2022/11/09 03:08:45;;;;;;;103.30;54.10;;;5.00;99.90;;;;;;5088647;28;20044;-84
2022/11/09 03:11:14;;;;;;;95.07;51.80;;;5.00;99.90;;;;;;5088321;28;20093;-81
2022/11/09 03:13:41;;;;;;;94.93;51.47;;;5.00;99.90;;;;;;5089038;28;20044;-83
2022/11/09 03:16:09;;;;;;;89.18;51.20;;;5.00;99.90;;;;;;5089007;28;20518;-84
2022/11/09 03:18:39;;;;;;;94.57;51.25;;;5.00;99.90;;;;;;5089002;28;20040;-81
2022/11/09 03:21:07;;;;;;;97.28;51.33;;;5.00;99.90;;;;;;5088816;28;20479;-83
2022/11/09 03:23:34;;;;;;;101.43;52.58;;;5.00;99.90;;;;;;5088432;28;20075;-82
2022/11/09 03:26:05;;;;;;;86.70;48.50;;;5.00;99.90;;;;;;5089632;28;20051;-82
2022/11/09 03:28:32;;;;;;;97.00;50.40;;;5.00;99.90;;;;;;5090334;28;20370;-82
2022/11/09 03:30:59;;;;;;;92.93;47.97;;;5.00;99.90;;;;;;5097278;28;20063;-82
2022/11/09 03:33:27;;;;;;;84.30;47.53;;;5.00;99.90;;;;;;5099253;28;20032;-82
2022/11/09 03:35:54;;;;;;;88.25;49.10;;;5.00;99.90;;;;;;5098710;28;20071;-82
2022/11/09 03:38:22;;;;;;;94.95;50.15;;;5.00;99.90;;;;;;5089281;28;20052;-81
2022/11/09 03:40:51;;;;;;;84.28;48.15;;;5.00;99.90;;;;;;5089727;28;20036;-81
2022/11/09 03:43:20;;;;;;;90.50;47.63;;;5.00;99.90;;;;;;5089552;28;20047;-81
2022/11/09 03:45:47;;;;;;;89.38;46.63;;;4.90;99.90;;;;;;5099423;28;20119;-82
2022/11/09 03:48:15;;;;;;;85.65;47.50;;;4.90;99.90;;;;;;5099018;28;20036;-82
2022/11/09 03:50:42;;;;;;;89.40;49.20;;;4.90;99.90;;;;;;5097721;28;20039;-80
2022/11/09 03:53:10;;;;;;;93.07;49.47;;;4.90;99.90;;;;;;5101083;28;20031;-81
2022/11/09 03:55:38;;;;;;;77.15;44.50;;;4.90;99.90;;;;;;5103024;28;20043;-82
2022/11/09 03:58:07;;;;;;;92.85;52.75;;;4.80;99.90;;;;;;5102887;28;20043;-83
2022/11/09 04:00:36;;;;;;;98.80;53.50;;;4.80;99.90;;;;;;5102454;28;20093;-82
2022/11/09 04:03:03;;;;;;;89.93;51.60;;;4.90;99.90;;;;;;5103523;28;20875;-81
2022/11/09 04:05:31;;;;;;;86.95;48.67;;;4.90;99.90;;;;;;5102971;28;20043;-82
2022/11/09 04:07:58;;;;;;;81.15;44.22;;;5.00;99.90;;;;;;5103681;28;20495;-82
2022/11/09 04:10:26;;;;;;;68.63;39.88;;;5.00;99.90;;;;;;5103619;28;20036;-81
2022/11/09 04:12:54;;;;;;;70.47;40.47;;;5.10;99.90;;;;;;5102337;28;20044;-81
2022/11/09 04:15:21;;;;;;;66.15;38.88;;;5.10;99.90;;;;;;5102924;28;20035;-81
2022/11/09 04:18:02;;;;;;;57.65;34.38;;;5.10;99.90;;;;;;5092986;28;20061;-81
2022/11/09 04:20:31;;;;;;;65.68;36.90;;;5.10;99.90;;;;;;5127044;28;20027;-81
2022/11/09 04:23:00;;;;;;;70.32;41.83;;;5.10;99.90;;;;;;5128371;28;20048;-81
2022/11/09 04:25:29;;;;;;;76.63;43.63;;;5.00;99.90;;;;;;5110972;28;20091;-81
2022/11/09 04:27:57;;;;;;;77.07;43.88;;;5.00;99.90;;;;;;5087007;28;20131;-80
2022/11/09 04:30:27;;;;;;;82.40;44.92;;;5.10;99.90;;;;;;5087501;28;20067;-83
2022/11/09 04:32:55;;;;;;;75.18;45.10;;;5.10;99.90;;;;;;5084515;28;20079;-81
2022/11/09 04:35:24;;;;;;;85.55;45.75;;;5.10;99.90;;;;;;5080723;28;20044;-81
2022/11/09 04:37:55;;;;;;;79.90;42.28;;;5.10;99.90;;;;;;5064875;28;20442;-82
2022/11/09 04:40:24;;;;;;;85.30;47.70;;;5.10;99.90;;;;;;5087279;28;20048;-79
2022/11/09 04:42:52;;;;;;;86.60;48.83;;;5.10;99.90;;;;;;5064726;28;20052;-83
2022/11/09 04:45:20;;;;;;;86.38;50.42;;;5.00;99.90;;;;;;5081123;28;20075;-80
2022/11/09 04:47:48;;;;;;;90.70;48.30;;;5.00;99.90;;;;;;5065314;28;20052;-80
2022/11/09 04:50:15;;;;;;;85.45;51.20;;;5.00;99.90;;;;;;5068205;28;20558;-82
2022/11/09 04:52:44;;;;;;;84.25;47.90;;;5.10;99.90;;;;;;5081500;28;20051;-82
2022/11/09 04:55:11;;;;;;;79.03;44.25;;;5.10;99.90;;;;;;5083777;28;20036;-82
2022/11/09 04:57:38;;;;;;;88.68;44.30;;;5.20;99.90;;;;;;5081536;28;20383;-82
2022/11/09 05:00:07;;;;;;;91.65;50.13;;;5.30;99.90;;;;;;5079840;28;20446;-81
2022/11/09 05:02:34;;;;;;;100.88;56.88;;;5.30;99.90;;;;;;5081651;28;20285;-81
2022/11/09 05:05:01;;;;;;;117.13;62.38;;;5.30;99.90;;;;;;5080348;28;20527;-82
2022/11/09 05:07:29;;;;;;;116.60;61.97;;;5.30;99.90;;;;;;5081391;28;20377;-82
2022/11/09 05:09:57;;;;;;;112.25;59.13;;;5.30;99.90;;;;;;5079734;28;20055;-80
2022/11/09 05:12:25;;;;;;;110.80;60.08;;;5.30;99.90;;;;;;5080747;28;20047;-81
2022/11/09 05:14:52;;;;;;;111.20;58.65;;;5.20;99.90;;;;;;5080802;28;20488;-81
2022/11/09 05:17:19;;;;;;;133.73;69.63;;;5.30;99.90;;;;;;5080886;28;20089;-80
2022/11/09 05:19:47;;;;;;;121.63;63.10;;;5.20;99.90;;;;;;5079478;28;20047;-80
2022/11/09 05:25:00;;;;;;;132.43;70.05;;;5.30;99.90;;;;;;5062959;28;20048;-81
2022/11/09 05:27:27;;;;;;;103.25;51.55;;;5.30;99.90;;;;;;5098424;28;20036;-82
2022/11/09 05:29:54;;;;;;;120.22;53.72;;;5.30;99.90;;;;;;5098636;28;20097;-81
2022/11/09 05:32:21;;;;;;;78.90;42.83;;;5.20;99.90;;;;;;5099525;28;20094;-81
2022/11/09 05:34:49;;;;;;;98.22;43.42;;;5.20;99.90;;;;;;5099958;28;20071;-81
2022/11/09 05:37:19;;;;;;;77.65;41.28;;;5.30;99.90;;;;;;5099922;28;20048;-81
2022/11/09 05:39:46;;;;;;;86.28;43.00;;;5.30;99.90;;;;;;5099635;28;20096;-82
2022/11/09 05:42:15;;;;;;;93.78;49.30;;;5.30;99.90;;;;;;5095747;28;20054;-82
2022/11/09 05:44:42;;;;;;;116.05;56.13;;;5.30;99.90;;;;;;5100026;28;20165;-82
2022/11/09 05:47:09;;;;;;;127.53;62.15;;;5.30;99.90;;;;;;5099372;28;20036;-80
2022/11/09 05:49:37;;;;;;;142.35;68.30;;;5.30;99.90;;;;;;5101060;28;20093;-82
2022/11/09 05:52:04;;;;;;;133.85;67.63;;;5.30;99.90;;;;;;5100190;28;20044;-83
2022/11/09 05:54:32;;;;;;;130.52;67.10;;;5.30;99.90;;;;;;5100896;28;20399;-82
2022/11/09 05:57:00;;;;;;;120.53;61.97;;;5.20;99.90;;;;;;5100544;28;20036;-82
2022/11/09 05:59:29;;;;;;;108.38;53.78;;;5.20;99.90;;;;;;5082454;28;20230;-82
2022/11/09 06:01:57;;;;;;;129.43;57.80;;;5.20;99.90;;;;;;5101631;28;20044;-81
2022/11/09 06:04:24;;;;;;;114.57;57.47;;;5.20;99.90;;;;;;5097249;28;20090;-81
2022/11/09 06:06:51;;;;;;;91.40;48.00;;;5.20;99.90;;;;;;5099258;28;20541;-82
2022/11/09 06:09:18;;;;;;;95.35;44.63;;;5.30;99.90;;;;;;5080541;28;20043;-80
2022/11/09 06:11:46;;;;;;;85.50;44.67;;;5.30;99.90;;;;;;5098942;28;20039;-82
2022/11/09 06:14:13;;;;;;;72.60;40.80;;;5.40;99.90;;;;;;5099435;28;20040;-82
2022/11/09 06:16:42;;;;;;;83.95;42.72;;;5.40;99.90;;;;;;5097957;28;20042;-81
2022/11/09 06:19:09;;;;;;;108.80;52.78;;;5.40;99.90;;;;;;5078428;28;20044;-81
2022/11/09 06:21:36;;;;;;;129.63;61.58;;;5.40;99.90;;;;;;5097900;28;20036;-81
2022/11/09 06:24:04;;;;;;;150.48;73.55;;;5.40;99.90;;;;;;5096072;28;20036;-83
2022/11/09 06:26:32;;;;;;;136.95;66.90;;;5.40;99.90;;;;;;5085166;28;20048;-83
2022/11/09 06:28:59;;;;;;;122.88;60.25;;;5.40;99.90;;;;;;5089810;28;20101;-82
2022/11/09 06:31:27;;;;;;;104.53;53.92;;;5.30;99.90;;;;;;5089635;28;20506;-82
2022/11/09 06:33:55;;;;;;;106.50;52.97;;;5.30;99.90;;;;;;5089170;28;20380;-83
2022/11/09 06:36:23;;;;;;;88.20;44.97;;;5.40;99.90;;;;;;5087780;28;20092;-81
2022/11/09 06:38:51;;;;;;;85.72;43.25;;;5.50;99.90;;;;;;5089244;28;20069;-80
2022/11/09 06:41:18;;;;;;;86.22;45.63;;;5.60;99.90;;;;;;5089276;28;20032;-81
2022/11/09 06:43:46;;;;;;;124.95;55.60;;;5.70;99.90;;;;;;5089166;28;20544;-82
2022/11/09 06:46:16;;;;;;;103.85;46.47;;;5.80;99.90;;;;;;5087242;28;20101;-82
2022/11/09 06:48:43;;;;;;;97.38;45.45;;;5.80;99.90;;;;;;5088594;28;20176;-80
2022/11/09 06:51:12;;;;;;;77.13;38.08;;;5.90;99.90;;;;;;5089095;28;20098;-82
2022/11/09 06:53:40;;;;;;;73.53;37.92;;;6.10;99.90;;;;;;5087697;28;20040;-83
2022/11/09 06:56:08;;;;;;;64.88;35.17;;;6.20;99.90;;;;;;5089278;28;20120;-82
2022/11/09 06:58:36;;;;;;;67.78;37.67;;;6.30;99.90;;;;;;5087786;28;20044;-80
2022/11/09 07:01:08;;;;;;;88.90;45.03;;;6.40;99.90;;;;;;5088042;28;20403;-81
2022/11/09 07:03:35;;;;;;;83.68;43.67;;;6.50;99.90;;;;;;5088651;28;20040;-82
2022/11/09 07:06:05;;;;;;;82.57;44.03;;;6.50;99.90;;;;;;5089399;28;20480;-82
2022/11/09 07:08:35;;;;;;;82.60;44.55;;;6.60;99.90;;;;;;5089115;28;20085;-82
2022/11/09 07:11:07;;;;;;;68.57;39.58;;;6.70;99.90;;;;;;5088704;28;20040;-83
2022/11/09 07:13:34;;;;;;;72.20;38.05;;;6.80;99.90;;;;;;5088480;28;20123;-80
2022/11/09 07:16:03;;;;;;;55.92;31.77;;;6.90;99.90;;;;;;5089340;28;20039;-83
2022/11/09 07:18:31;;;;;;;44.42;27.25;;;6.90;99.90;;;;;;5089571;28;20469;-83
2022/11/09 07:20:58;;;;;;;60.78;35.65;;;7.00;99.90;;;;;;5089329;28;20048;-81
2022/11/09 07:23:26;;;;;;;73.75;45.35;;;7.10;99.90;;;;;;5090297;28;20442;-80
2022/11/09 07:25:55;;;;;;;84.03;48.90;;;7.20;99.90;;;;;;5086415;28;20289;-83
2022/11/09 07:28:23;;;;;;;90.00;51.95;;;7.30;99.90;;;;;;5090672;28;20043;-82
2022/11/09 07:30:51;;;;;;;72.60;43.92;;;7.30;99.90;;;;;;5092729;28;20040;-82
2022/11/09 07:33:21;;;;;;;65.82;39.50;;;7.50;99.90;;;;;;5090294;28;20045;-80
2022/11/09 07:35:49;;;;;;;65.43;40.63;;;7.70;99.90;;;;;;5092149;28;20051;-84
2022/11/09 07:38:18;;;;;;;82.72;46.03;;;7.90;99.90;;;;;;5090316;28;20036;-81
2022/11/09 07:40:50;;;;;;;74.03;44.50;;;8.10;99.90;;;;;;5090210;28;20490;-82
2022/11/09 07:43:20;;;;;;;73.95;44.47;;;8.20;99.90;;;;;;5091632;28;20066;-81
2022/11/09 07:45:52;;;;;;;61.78;40.03;;;8.20;99.90;;;;;;5072933;28;20586;-81
2022/11/09 07:48:21;;;;;;;59.75;36.33;;;8.30;99.90;;;;;;5074613;28;20048;-80
2022/11/09 07:50:48;;;;;;;65.82;36.08;;;8.30;99.90;;;;;;5091260;28;20089;-81
2022/11/09 07:53:16;;;;;;;66.68;37.10;;;8.40;99.90;;;;;;5091358;28;20032;-80
2022/11/09 07:55:44;;;;;;;72.75;39.70;;;8.40;99.90;;;;;;5102699;28;20036;-81
2022/11/09 07:58:13;;;;;;;62.08;36.15;;;8.50;99.90;;;;;;5103263;28;20121;-81
2022/11/09 08:00:44;;;;;;;72.88;41.30;;;8.50;99.90;;;;;;5101544;28;20052;-82
2022/11/09 08:03:11;;;;;;;62.70;37.05;;;8.50;99.90;;;;;;5091735;28;20043;-82
2022/11/09 08:05:39;;;;;;;63.60;38.33;;;8.50;99.90;;;;;;5102897;28;20036;-81
2022/11/09 08:08:10;;;;;;;59.53;36.22;;;8.50;99.90;;;;;;5092168;28;20071;-80
2022/11/09 08:10:38;;;;;;;57.72;36.13;;;8.50;99.90;;;;;;5102226;28;20070;-78
2022/11/09 08:13:08;;;;;;;60.30;34.50;;;8.50;99.90;;;;;;5103481;28;20499;-79
2022/11/09 08:15:37;;;;;;;55.13;32.92;;;8.70;99.90;;;;;;5098213;28;20040;-79
2022/11/09 08:18:16;;;;;;;48.33;29.33;;;8.70;99.90;;;;;;5100558;28;20042;-82
2022/11/09 08:20:43;;;;;;;45.22;28.45;;;8.80;99.90;;;;;;5100068;28;20040;-79
2022/11/09 08:23:12;;;;;;;40.17;27.17;;;8.90;99.90;;;;;;5100876;28;20036;-78
2022/11/09 08:25:39;;;;;;;42.97;29.90;;;9.10;99.90;;;;;;5099429;28;20079;-78
2022/11/09 08:28:07;;;;;;;53.03;30.65;;;9.20;99.90;;;;;;5100442;28;20036;-79
2022/11/09 08:30:35;;;;;;;51.83;32.33;;;9.30;99.90;;;;;;5099638;28;20037;-78
2022/11/09 08:33:04;;;;;;;48.53;32.67;;;9.50;99.90;;;;;;5098392;28;20043;-77
2022/11/09 08:35:33;;;;;;;48.45;31.48;;;9.60;99.90;;;;;;5100318;28;20490;-79
2022/11/09 08:38:02;;;;;;;53.97;33.40;;;9.80;99.90;;;;;;5101350;28;20057;-78
2022/11/09 08:40:31;;;;;;;52.33;35.50;;;9.90;99.90;;;;;;5082641;28;20380;-79
2022/11/09 08:43:02;;;;;;;50.97;35.63;;;10.10;99.90;;;;;;5098129;28;20040;-78
2022/11/09 08:45:32;;;;;;;48.47;33.20;;;10.20;99.90;;;;;;5101744;28;20031;-77
2022/11/09 08:48:02;;;;;;;45.45;31.23;;;10.40;99.90;;;;;;5099210;28;20047;-77
2022/11/09 08:50:32;;;;;;;41.08;29.50;;;10.60;99.90;;;;;;5082196;28;20055;-76
2022/11/09 08:53:00;;;;;;;51.33;31.90;;;10.80;99.90;;;;;;5102248;28;20047;-76
2022/11/09 08:55:27;;;;;;;46.17;28.25;;;10.90;99.90;;;;;;5083817;28;20040;-78
2022/11/09 08:57:56;;;;;;;46.42;29.60;;;11.10;99.90;;;;;;5096544;28;20063;-78
2022/11/09 09:00:24;;;;;;;55.22;37.15;;;11.30;99.90;;;;;;5095292;28;20499;-76
2022/11/09 09:02:51;;;;;;;63.72;42.40;;;11.40;99.90;;;;;;5102551;28;20085;-78
2022/11/09 09:05:19;;;;;;;86.05;51.80;;;11.60;99.90;;;;;;5121626;28;20036;-77
2022/11/09 09:07:48;;;;;;;98.10;57.50;;;11.70;99.90;;;;;;5117946;28;20039;-78
2022/11/09 09:10:16;;;;;;;96.75;58.17;;;11.80;99.90;;;;;;5112006;28;20513;-77
2022/11/09 09:12:44;;;;;;;88.32;55.80;;;11.80;99.90;;;;;;5101253;28;20491;-79
2022/11/09 09:15:11;;;;;;;95.93;55.17;;;11.90;99.90;;;;;;5101253;28;20047;-78
2022/11/09 09:17:39;;;;;;;72.15;43.40;;;12.00;99.90;;;;;;5082977;28;20044;-76
2022/11/09 09:20:07;;;;;;;79.90;49.38;;;12.10;99.90;;;;;;5100225;28;20044;-79
2022/11/09 09:22:35;;;;;;;74.53;47.35;;;12.10;99.90;;;;;;5098307;28;20048;-78
2022/11/09 09:25:04;;;;;;;69.60;46.17;;;12.10;99.90;;;;;;5096519;28;20087;-76
2022/11/09 09:27:31;;;;;;;76.03;45.80;;;12.20;99.90;;;;;;5079085;28;20565;-77
2022/11/09 09:30:01;;;;;;;75.90;49.25;;;12.20;99.90;;;;;;5062647;28;20079;-77
2022/11/09 09:32:29;;;;;;;69.00;43.83;;;12.30;99.90;;;;;;5058917;28;20094;-78
2022/11/09 09:34:56;;;;;;;62.40;41.08;;;12.30;99.90;;;;;;5077600;28;20033;-78
2022/11/09 09:37:23;;;;;;;52.55;36.78;;;12.50;99.90;;;;;;5062564;28;20036;-77
2022/11/09 09:39:51;;;;;;;59.47;36.92;;;12.60;99.90;;;;;;5061011;28;20051;-78
2022/11/09 09:42:23;;;;;;;70.38;40.90;;;12.60;99.90;;;;;;5078061;28;20029;-78
2022/11/09 09:44:56;;;;;;;54.78;38.42;;;12.80;99.90;;;;;;5076404;28;20553;-77
2022/11/09 09:47:33;;;;;;;62.03;42.42;;;12.90;99.90;;;;;;5078016;28;20442;-79
2022/11/09 09:50:05;;;;;;;65.15;44.92;;;13.00;99.90;;;;;;5073708;28;20411;-78
2022/11/09 09:52:39;;;;;;;71.95;45.47;;;13.10;99.90;;;;;;5059945;28;20097;-77
2022/11/09 09:55:16;;;;;;;75.85;49.80;;;13.10;99.90;;;;;;5075902;28;20090;-79
2022/11/09 09:57:54;;;;;;;81.70;51.75;;;13.30;99.90;;;;;;5079069;28;20040;-76
2022/11/09 10:00:24;;;;;;;68.47;45.20;;;13.40;99.90;;;;;;5075959;28;20055;-77
2022/11/09 10:02:52;;;;;;;59.85;41.97;;;13.60;99.90;;;;;;5078067;28;20048;-77
2022/11/09 10:05:26;;;;;;;69.55;43.92;;;13.70;99.90;;;;;;5077975;28;20513;-78
2022/11/09 10:08:04;;;;;;;54.85;40.40;;;13.80;99.90;;;;;;5079786;28;20123;-78
2022/11/09 10:10:43;;;;;;;57.95;39.58;;;13.90;99.90;;;;;;5081860;28;20044;-77
2022/11/09 10:13:36;;;;;;;58.90;40.75;;;13.90;99.90;;;;;;5078281;28;20045;-79
2022/11/09 10:16:10;;;;;;;69.20;44.67;;;14.00;99.90;;;;;;5078044;28;20372;-77
2022/11/09 10:18:54;;;;;;;68.70;46.75;;;14.10;99.90;;;;;;5080141;28;20036;-78
2022/11/09 10:21:34;;;;;;;66.07;45.05;;;14.10;99.90;;;;;;5077307;28;20090;-77
2022/11/09 10:24:22;;;;;;;71.00;46.80;;;14.10;99.90;;;;;;5078257;28;20036;-77
2022/11/09 10:26:52;;;;;;;63.75;45.97;;;14.20;99.90;;;;;;5095487;28;20055;-78
2022/11/09 10:29:25;;;;;;;63.25;44.63;;;14.30;99.90;;;;;;5100336;28;20511;-77
2022/11/09 10:31:57;;;;;;;68.45;43.47;;;14.40;99.90;;;;;;5098514;28;20040;-78
2022/11/09 10:34:29;;;;;;;67.35;41.78;;;14.50;99.90;;;;;;5098851;28;20044;-77
2022/11/09 10:37:04;;;;;;;61.45;43.92;;;14.60;99.90;;;;;;5098913;28;20407;-78
2022/11/09 10:39:42;;;;;;;57.47;38.17;;;14.70;99.90;;;;;;5098348;28;20163;-77
2022/11/09 10:42:28;;;;;;;54.92;39.80;;;14.70;99.90;;;;;;5098347;28;20058;-78
2022/11/09 10:45:21;;;;;;;57.95;38.15;;;14.80;99.90;;;;;;5098371;28;20411;-78
2022/11/09 10:48:09;;;;;;;67.07;46.22;;;14.80;99.90;;;;;;5098312;28;20054;-78
2022/11/09 10:50:55;;;;;;;70.28;48.65;;;15.00;99.90;;;;;;5097938;28;20490;-77
2022/11/09 10:53:41;;;;;;;74.30;47.72;;;15.00;99.90;;;;;;5098248;28;20055;-76
2022/11/09 10:56:27;;;;;;;66.18;43.95;;;15.00;99.90;;;;;;5098871;28;20140;-78
2022/11/09 10:59:37;;;;;;;66.72;42.53;;;15.10;99.90;;;;;;5099484;28;20089;-79
2022/11/09 11:02:46;;;;;;;55.33;38.22;;;15.20;99.90;;;;;;5100172;28;20067;-78
2022/11/09 11:05:33;;;;;;;61.67;41.20;;;15.30;99.90;;;;;;5101885;28;20100;-78
2022/11/09 11:08:33;;;;;;;55.80;38.22;;;15.30;99.90;;;;;;5102919;28;20097;-79
2022/11/09 11:11:27;;;;;;;89.03;45.88;;;15.40;99.90;;;;;;5105015;28;20125;-77
2022/11/09 11:14:16;;;;;;;64.35;40.70;;;15.40;99.90;;;;;;5104173;28;20055;-79
2022/11/09 11:17:02;;;;;;;55.92;40.20;;;15.40;99.90;;;;;;5100792;28;20799;-79
2022/11/09 11:19:50;;;;;;;58.15;38.65;;;15.50;99.90;;;;;;5100932;28;20047;-77
2022/11/09 11:22:36;;;;;;;54.20;38.58;;;15.50;99.90;;;;;;5102494;28;20055;-78
2022/11/09 11:25:23;;;;;;;61.85;42.60;;;15.60;99.90;;;;;;5103863;28;20058;-78
2022/11/09 11:28:18;;;;;;;53.33;38.03;;;15.70;99.90;;;;;;5104250;28;20047;-76
2022/11/09 11:31:07;;;;;;;43.25;28.15;;;15.80;1.00;;;;;;5102380;28;20047;-77
2022/11/09 11:33:53;;;;;;;37.25;26.00;;;15.80;1.00;;;;;;5103704;28;20062;-78
2022/11/09 11:36:51;;;;;;;31.60;21.75;;;15.90;1.00;;;;;;5102551;28;20059;-77
2022/11/09 11:39:57;;;;;;;36.33;25.00;;;16.00;1.00;;;;;;5107337;28;20054;-78
2022/11/09 11:43:19;;;;;;;34.78;25.65;;;16.00;1.00;;;;;;5106751;28;20050;-77
2022/11/09 11:46:14;;;;;;;41.55;29.35;;;16.10;1.00;;;;;;5100308;28;20390;-77
2022/11/09 11:49:33;;;;;;;45.55;30.10;;;16.20;86.10;;;;;;5103262;28;20132;-78
2022/11/09 11:52:27;;;;;;;34.05;23.70;;;16.20;99.90;;;;;;5102285;28;20086;-78
2022/11/09 11:55:32;;;;;;;38.67;25.42;;;16.30;1.00;;;;;;5103004;28;20311;-77
2022/11/09 11:58:32;;;;;;;34.00;23.73;;;16.40;99.90;;;;;;5101581;28;20173;-77
2022/11/09 12:01:33;;;;;;;24.67;18.08;;;16.50;79.60;;;;;;5101121;28;20112;-78
2022/11/09 12:04:46;;;;;;;19.88;13.80;;;16.60;1.00;;;;;;5100212;28;20457;-76
2022/11/09 12:07:38;;;;;;;21.65;15.52;;;16.60;1.00;;;;;;5101682;28;20055;-78
2022/11/09 12:10:36;;;;;;;30.45;20.73;;;16.70;1.00;;;;;;5101412;28;20071;-77
2022/11/09 12:13:42;;;;;;;25.58;18.95;;;16.80;1.00;;;;;;5100886;28;20117;-78
2022/11/09 12:16:35;;;;;;;25.27;17.88;;;16.80;99.90;;;;;;5100446;28;20518;-79
2022/11/09 12:19:44;;;;;;;31.60;15.93;;;16.90;99.90;;;;;;5100751;28;20636;-78
2022/11/09 12:22:39;;;;;;;17.85;9.60;;;16.90;99.90;;;;;;5102478;28;20058;-77
2022/11/09 12:25:33;;;;;;;12.55;9.68;;;16.90;1.00;;;;;;5099747;28;20050;-77
2022/11/09 12:28:45;;;;;;;14.95;11.73;;;16.90;65.60;;;;;;5100302;28;20046;-77
2022/11/09 12:31:41;;;;;;;17.80;13.20;;;16.90;1.00;;;;;;5100699;28;20065;-78
2022/11/09 12:34:31;;;;;;;19.45;13.25;;;16.90;1.00;;;;;;5102076;28;20055;-77
2022/11/09 12:37:23;;;;;;;22.45;14.55;;;16.90;99.90;;;;;;5102344;28;20100;-78
2022/11/09 12:40:21;;;;;;;24.55;14.57;;;16.90;1.00;;;;;;5101209;28;20058;-76
2022/11/09 12:43:16;;;;;;;24.15;16.23;;;17.00;1.00;;;;;;5100545;28;20050;-78
2022/11/09 12:46:05;;;;;;;27.20;16.98;;;17.10;1.00;;;;;;5100850;28;20046;-77
2022/11/09 12:48:51;;;;;;;23.05;17.02;;;17.10;99.90;;;;;;5100833;28;20052;-77
2022/11/09 12:51:38;;;;;;;27.88;17.42;;;17.20;1.00;;;;;;5101473;28;20055;-79
2022/11/09 12:54:25;;;;;;;28.05;18.40;;;17.30;1.00;;;;;;5101886;28;20055;-77
2022/11/09 12:57:21;;;;;;;23.30;15.50;;;17.30;1.00;;;;;;5100405;28;20069;-76
2022/11/09 13:00:29;;;;;;;21.50;14.93;;;17.30;7.60;;;;;;5102748;28;20510;-77
2022/11/09 13:03:23;;;;;;;21.52;13.65;;;17.30;99.90;;;;;;5101922;28;20528;-76
2022/11/09 13:06:22;;;;;;;21.25;10.98;;;17.30;1.00;;;;;;5100060;28;20055;-76